Flight Track Log - Related Links

Times and Time Zones

All times are in EDT time to prevent confusion due to time zone crossing. See the UAL33 flight status page for this flight to view local times or setup timezone preferences in your user account.


Time Position Orientation Groundspeed Altitude Reporting Facility
EDT Latitude Longitude Course Direction KTS MPH feet Rate Location/Type
Sun 09:47:26 PM 41.9800 -87.9130 315° West 26 30  Level FlightAware ADS-B
Sun 09:47:55 PM 41.9820 -87.9150 323° Northwest 26 30 196 Level FlightAware ADS-B
Sun 09:48:14 PM 41.9780 -87.9140 169° South 31 36 212 Level FlightAware ADS-B
Sun 09:48:40 PM 41.9750 -87.9140 180° South 31 36 225 Level FlightAware ADS-B
Sun 09:51:00 PM 41.7260 -87.9580 194° South  Level FlightAware Approximate
Sun 09:52:00 PM 41.6214 -87.9770 187° South  Level FlightAware Approximate
Sun 09:53:00 PM 41.5165 -87.9967 189° South  Level FlightAware Approximate
Sun 09:53:34 PM 41.9910 -87.9330 189° South 160 184 1,200  Level FlightAware ADS-B
Sun 09:53:50 PM 41.9970 -87.9470 300° West 155 178 1,900 2,045 Climbing FlightAware ADS-B
Sun 09:54:18 PM 41.9850 -87.9710 236° Southwest 200 230 2,700 1,889 Climbing FlightAware ADS-B
Sun 09:54:44 PM 41.9630 -87.9910 214° Southwest 237 273 3,600 2,286 Climbing FlightAware ADS-B
Sun 09:55:00 PM 41.9470 -88.0050 213° Southwest 257 296 4,300 2,100 Climbing FlightAware ADS-B
Sun 09:55:24 PM 41.9230 -88.0270 214° Southwest 268 308 5,000 1,200 Climbing FlightAware ADS-B
Sun 09:55:40 PM 41.9040 -88.0380 203° Southwest 275 316 5,100  Climbing FlightAware ADS-B
Sun 09:55:56 PM 41.8830 -88.0370 178° South 279 321 5,000 -136 Descending FlightAware ADS-B
Sun 09:56:24 PM 41.8480 -88.0320 174° South 277 319 5,000 113 Level FlightAware ADS-B
Sun 09:56:49 PM 41.8160 -88.0270 173° South 280 322 5,100 1,585 Climbing FlightAware ADS-B
Sun 09:57:17 PM 41.7790 -88.0220 174° South 283 326 6,400 3,136 Climbing FlightAware ADS-B
Sun 09:57:33 PM 41.7580 -88.0190 174° South 287 330 7,400 3,667 Climbing FlightAware ADS-B
Sun 09:57:53 PM 41.7320 -88.0170 177° South 290 334 8,600 3,353 Climbing FlightAware ADS-B
Sun 09:58:41 PM 41.6650 -88.0180 181° South 312 359 11,200 3,355 Climbing FlightAware ADS-B
Sun 09:59:26 PM 41.5990 -88.0210 182° South 327 376 13,800 3,143 Climbing FlightAware ADS-B
Sun 10:00:05 PM 41.5340 -88.0250 183° South 360 414 15,600 2,963 Climbing FlightAware ADS-B
Sun 10:00:47 PM 41.4650 -88.0270 181° South 374 430 17,800 3,070 Climbing FlightAware ADS-B
Sun 10:01:31 PM 41.3870 -88.0370 185° South 381 438 20,000 3,140 Climbing FlightAware ADS-B
Sun 10:02:13 PM 41.3200 -88.0670 199° South 369 425 22,300 3,000 Climbing FlightAware ADS-B
Sun 10:02:57 PM 41.2540 -88.1210 212° Southwest 381 438 24,300 2,571 Climbing FlightAware ADS-B
Sun 10:03:37 PM 41.1900 -88.1650 207° Southwest 391 450 25,900 2,296 Climbing FlightAware ADS-B
Sun 10:04:18 PM 41.1210 -88.2110 207° Southwest 404 465 27,400 2,143 Climbing FlightAware ADS-B
Sun 10:05:01 PM 41.0590 -88.2750 218° Southwest 407 468 28,900 2,169 Climbing FlightAware ADS-B
Sun 10:05:41 PM 41.0040 -88.3450 224° Southwest 412 474 30,400 2,233 Climbing FlightAware ADS-B
Sun 10:06:27 PM 40.9400 -88.4220 222° Southwest 414 476 32,100 2,302 Climbing FlightAware ADS-B
Sun 10:07:07 PM 40.8820 -88.4890 221° Southwest 412 474 33,700 2,071 Climbing FlightAware ADS-B
Sun 10:07:51 PM 40.8080 -88.5450 210° Southwest 423 487 35,000 1,535 Climbing FlightAware ADS-B
Sun 10:08:33 PM 40.7350 -88.5920 206° Southwest 429 494 35,900 1,390 Climbing FlightAware ADS-B
Sun 10:09:13 PM 40.6640 -88.6380 206° Southwest 432 497 36,900 1,500 Climbing FlightAware ADS-B
Sun 10:09:53 PM 40.5920 -88.6850 206° Southwest 428 493 37,900 1,326 Climbing FlightAware ADS-B
Sun 10:10:39 PM 40.5110 -88.7370 206° Southwest 432 497 38,800 788 Climbing FlightAware ADS-B
Sun 10:11:32 PM 40.4540 -88.7740 206° Southwest 435 501 39,200 766 Climbing FlightAware ADS-B
Sun 10:12:13 PM 40.3410 -88.8470 206° Southwest 443 510 40,000 600 Climbing FlightAware ADS-B
Sun 10:12:52 PM 40.2660 -88.8950 206° Southwest 444 511 40,000  Level FlightAware ADS-B
Sun 10:13:38 PM 40.1820 -88.9490 206° Southwest 442 509 40,000  Level FlightAware ADS-B
Sun 10:14:20 PM 40.1050 -88.9970 205° Southwest 441 507 40,000  Level FlightAware ADS-B
Sun 10:15:04 PM 40.0240 -89.0490 206° Southwest 439 505 40,000  Level FlightAware ADS-B
Sun 10:15:46 PM 39.9490 -89.0970 206° Southwest 437 503 40,000  Level FlightAware ADS-B
Sun 10:16:24 PM 39.8800 -89.1410 206° Southwest 438 504 40,000  Level FlightAware ADS-B
Sun 10:17:10 PM 39.7950 -89.1940 206° Southwest 440 506 40,000  Level FlightAware ADS-B
Sun 10:17:50 PM 39.7210 -89.2400 206° Southwest 440 506 40,000  Level FlightAware ADS-B
Sun 10:18:34 PM 39.6440 -89.2890 206° Southwest 440 506 40,000  Level FlightAware ADS-B
Sun 10:19:12 PM 39.5720 -89.3340 206° Southwest 442 509 40,000  Level FlightAware ADS-B
Sun 10:19:58 PM 39.4860 -89.3880 206° Southwest 440 506 40,000  Level FlightAware ADS-B
Sun 10:20:32 PM 39.4270 -89.4240 205° Southwest 440 506 40,000  Level FlightAware ADS-B
Sun 10:21:22 PM 39.3340 -89.4820 206° Southwest 439 505 40,000  Level FlightAware ADS-B
Sun 10:22:00 PM 39.2650 -89.5250 206° Southwest 440 506 40,000  Level FlightAware ADS-B
Sun 10:22:44 PM 39.1800 -89.5780 206° Southwest 442 509 40,000  Level FlightAware ADS-B
Sun 10:23:24 PM 39.1090 -89.6220 206° Southwest 443 510 40,000  Level FlightAware ADS-B
Sun 10:24:24 PM 38.9970 -89.6900 205° Southwest 442 509 40,000  Level FlightAware ADS-B
Sun 10:25:02 PM 38.9270 -89.7330 206° Southwest 440 506 40,000  Level FlightAware ADS-B
Sun 10:25:44 PM 38.8500 -89.7810 206° Southwest 440 506 40,000  Level FlightAware ADS-B
Sun 10:26:26 PM 38.7720 -89.8290 206° Southwest 445 512 40,000  Level FlightAware ADS-B
Sun 10:27:23 PM 38.6740 -89.8870 205° Southwest 446 513 40,000  Level FlightAware ADS-B
Sun 10:28:02 PM 38.5930 -89.9370 206° Southwest 443 510 40,000  Level FlightAware ADS-B
Sun 10:28:46 PM 38.5110 -89.9870 206° Southwest 449 517 40,000  Level FlightAware ADS-B
Sun 10:29:29 PM 38.4340 -90.0330 205° Southwest 441 507 40,000  Level FlightAware ADS-B
Sun 10:30:08 PM 38.3600 -90.0790 206° Southwest 442 509 40,000  Level FlightAware ADS-B
Sun 10:30:57 PM 38.2680 -90.1330 205° Southwest 446 513 40,000  Level FlightAware ADS-B
Sun 10:31:36 PM 38.1960 -90.1770 206° Southwest 446 513 40,000  Level FlightAware ADS-B
Sun 10:32:18 PM 38.1160 -90.2240 205° Southwest 450 518 40,000  Level FlightAware ADS-B
Sun 10:33:01 PM 38.0360 -90.2720 205° Southwest 449 517 40,000  Level FlightAware ADS-B
Sun 10:34:09 PM 37.9280 -90.3340 204° Southwest 449 517 40,000  Level FlightAware ADS-B
Sun 10:35:08 PM 37.8130 -90.4050 206° Southwest 437 503 40,000  Level FlightAware ADS-B
Sun 10:35:44 PM 37.7570 -90.4380 205° Southwest 437 503 40,000  Level FlightAware ADS-B
Sun 10:36:44 PM 37.6640 -90.4930 205° Southwest 437 503 40,000  Level FlightAware ADS-B
Sun 10:37:21 PM 37.6060 -90.5270 205° Southwest 437 503 40,000  Level FlightAware ADS-B
Sun 10:38:09 PM 37.5310 -90.5710 205° Southwest 437 503 40,000  Level FlightAware ADS-B
Sun 10:38:45 PM 37.4750 -90.6040 205° Southwest 437 503 40,000  Level FlightAware ADS-B
Sun 10:39:33 PM 37.3090 -90.7010 205° Southwest 447 514 40,000  Level FlightAware ADS-B
Sun 10:40:13 PM 37.2320 -90.7460 205° Southwest 447 514 40,000  Level FlightAware ADS-B
Sun 10:40:59 PM 37.1480 -90.7950 205° Southwest 449 517 40,000  Level FlightAware ADS-B
Sun 10:41:41 PM 37.0670 -90.8420 205° Southwest 447 514 40,000  Level FlightAware ADS-B
Sun 10:42:21 PM 36.9930 -90.8850 205° Southwest 450 518 40,000  Level FlightAware ADS-B
Sun 10:43:17 PM 36.8860 -90.9460 205° Southwest 447 514 40,000  Level FlightAware ADS-B
Sun 10:44:00 PM 36.8060 -90.9920 205° Southwest 449 517 40,000  Level FlightAware ADS-B
Sun 10:44:39 PM 36.7320 -91.0350 205° Southwest 452 520 40,000  Level FlightAware ADS-B
Sun 10:45:22 PM 36.6510 -91.0820 205° Southwest 453 521 40,000  Level FlightAware ADS-B
Sun 10:46:06 PM 36.5670 -91.1300 205° Southwest 451 519 40,000  Level FlightAware ADS-B
Sun 10:46:47 PM 36.4900 -91.1730 204° Southwest 448 516 40,000  Level FlightAware ADS-B
Sun 10:47:27 PM 36.4130 -91.2170 205° Southwest 451 519 40,000  Level FlightAware ADS-B
Sun 10:48:12 PM 36.3290 -91.2650 205° Southwest 451 519 40,000  Level FlightAware ADS-B
Sun 10:48:51 PM 36.2530 -91.3080 205° Southwest 454 522 40,000  Level FlightAware ADS-B
Sun 10:49:31 PM 36.1770 -91.3510 205° Southwest 458 527 40,000  Level FlightAware ADS-B
Sun 10:50:15 PM 36.0920 -91.3990 205° Southwest 461 531 40,000  Level FlightAware ADS-B
Sun 10:50:57 PM 36.0100 -91.4450 204° Southwest 460 529 40,000  Level FlightAware ADS-B
Sun 10:51:37 PM 35.9320 -91.4890 205° Southwest 463 533 40,000  Level FlightAware ADS-B
Sun 10:52:23 PM 35.8430 -91.5390 204° Southwest 460 529 40,000  Level FlightAware ADS-B
Sun 10:53:03 PM 35.7650 -91.5820 204° Southwest 459 528 40,000  Level FlightAware ADS-B
Sun 10:53:47 PM 35.6820 -91.6280 204° Southwest 455 524 40,000  Level FlightAware ADS-B
Sun 10:54:27 PM 35.5990 -91.6630 199° South 462 532 40,000  Level FlightAware ADS-B
Sun 10:55:13 PM 35.5060 -91.6910 194° South 468 539 40,000  Level FlightAware ADS-B
Sun 10:55:55 PM 35.4300 -91.7120 193° South 468 539 40,000  Level FlightAware ADS-B
Sun 10:56:29 PM 35.3450 -91.7380 194° South 479 551 40,000  Level FlightAware ADS-B
Sun 10:57:18 PM 35.2500 -91.7650 193° South 480 552 40,000  Level FlightAware ADS-B
Sun 10:57:54 PM 35.1840 -91.7840 193° South 480 552 40,000  Level FlightAware ADS-B
Sun 10:58:43 PM 35.0940 -91.8090 193° South 480 552 40,000  Level FlightAware ADS-B
Sun 10:59:19 PM 35.0270 -91.8280 193° South 480 552 40,000  Level FlightAware ADS-B
Sun 11:00:07 PM 34.9390 -91.8530 193° South 480 552 40,000  Level FlightAware ADS-B
Sun 11:00:44 PM 34.8710 -91.8720 193° South 480 552 40,000  Level FlightAware ADS-B
Sun 11:01:45 PM 34.7590 -91.9030 193° South 480 552 40,000  Level FlightAware ADS-B
Sun 11:02:21 PM 34.6930 -91.9220 193° South 480 552 40,000  Level FlightAware ADS-B
Sun 11:03:09 PM 34.6040 -91.9470 193° South 480 552 40,000  Level FlightAware ADS-B
Sun 11:03:47 PM 34.5350 -91.9660 193° South 480 552 40,000  Level FlightAware ADS-B
Sun 11:04:47 PM 34.4240 -91.9970 193° South 480 552 40,000  Level FlightAware ADS-B
Sun 11:05:23 PM 34.3580 -92.0160 193° South 480 552 40,000  Level FlightAware ADS-B
Sun 11:06:26 PM 34.2420 -92.0480 193° South 480 552 40,000  Level FlightAware ADS-B
Sun 11:07:32 PM 33.9514 -92.1400 193° South 469 540 40,000  Level Memphis Center
Sun 11:08:36 PM 33.8261 -92.1706 191° South 458 527 40,000  Level Fort Worth Center
Sun 11:09:37 PM 33.6939 -92.2061 193° South 473 544 40,000  Level Fort Worth Center
Sun 11:10:37 PM 33.5661 -92.2436 194° South 478 550 40,000  Level Fort Worth Center
Sun 11:11:36 PM 33.4339 -92.2786 192° South 485 558 40,000  Level Fort Worth Center
Sun 11:12:36 PM 33.2958 -92.3189 194° South 480 552 40,000  Level Fort Worth Center
Sun 11:13:36 PM 33.1697 -92.3511 192° South 474 545 40,000  Level Fort Worth Center
Sun 11:14:37 PM 33.0397 -92.3881 193° South 474 545 40,000  Level Fort Worth Center
Sun 11:20:10 PM 32.3129 -92.5857 193° South 479 551 40,000  Level FlightAware ADS-B
Sun 11:20:53 PM 32.2191 -92.6110 193° South 479 551 40,000 -90 Level FlightAware ADS-B
Sun 11:21:17 PM 32.1856 -92.6222 193° South 481 554 39,900 -162 Descending Houston Center
Sun 11:27:04 PM 31.5411 -93.0948 193° South 461 531 39,000 -143 Descending FlightAware ADS-B
Sun 11:27:35 PM 31.4915 -93.1426 219° Southwest 455 524 39,000  Level FlightAware ADS-B
Sun 11:28:05 PM 31.4426 -93.1894 219° Southwest 448 516 39,000  Level FlightAware ADS-B
Sun 11:28:35 PM 31.3957 -93.2345 219° Southwest 431 496 39,000  Level FlightAware ADS-B
Sun 11:29:05 PM 31.3493 -93.2788 219° Southwest 423 487 39,000  Level FlightAware ADS-B
Sun 11:29:36 PM 31.3038 -93.3224 219° Southwest 421 484 39,000 -1,180 Level FlightAware ADS-B
Sun 11:30:06 PM 31.2572 -93.3669 219° Southwest 443 510 37,800 -3,500 Descending FlightAware ADS-B
Sun 11:30:36 PM 31.2078 -93.4138 219° Southwest 474 545 35,500 -3,800 Descending FlightAware ADS-B
Sun 11:31:06 PM 31.1562 -93.4633 219° Southwest 484 557 34,000 -2,600 Descending FlightAware ADS-B
Sun 11:31:36 PM 31.1037 -93.5128 219° Southwest 482 555 32,900 -2,900 Descending FlightAware ADS-B
Sun 11:32:06 PM 31.0509 -93.5632 219° Southwest 494 568 31,100 -3,300 Descending FlightAware ADS-B
Sun 11:32:36 PM 30.9971 -93.6142 219° Southwest 497 572 29,600 -2,557 Descending FlightAware ADS-B
Sun 11:33:07 PM 30.9422 -93.6658 219° Southwest 488 562 28,500 -2,419 Descending FlightAware ADS-B
Sun 11:33:38 PM 30.8893 -93.7153 219° Southwest 483 556 27,100 -3,049 Descending FlightAware ADS-B
Sun 11:34:08 PM 30.8358 -93.7659 219° Southwest 485 558 25,400 -2,852 Descending FlightAware ADS-B
Sun 11:34:39 PM 30.7834 -93.8155 219° Southwest 474 545 24,200 -2,262 Descending FlightAware ADS-B
Sun 11:35:09 PM 30.7329 -93.8628 219° Southwest 463 533 23,100 -2,066 Descending FlightAware ADS-B
Sun 11:35:40 PM 30.6820 -93.9105 219° Southwest 447 514 22,100 -1,935 Descending FlightAware ADS-B
Sun 11:36:11 PM 30.6330 -93.9565 219° Southwest 433 498 21,100 -1,869 Descending FlightAware ADS-B
Sun 11:36:41 PM 30.5864 -94.0003 219° Southwest 420 483 20,200 -1,700 Descending FlightAware ADS-B
Sun 11:38:11 PM 30.4561 -94.1221 219° Southwest 383 441 17,700 -1,750 Descending FlightAware ADS-B
Sun 11:38:41 PM 30.4151 -94.1603 219° Southwest 378 435 16,700 -2,211 Descending FlightAware ADS-B
Sun 11:39:27 PM 30.3523 -94.2207 221° Southwest 383 441 14,900 -1,859 Descending FlightAware ADS-B
Sun 11:39:52 PM 30.3249 -94.2602 234° Southwest 375 432 14,500 -904 Descending FlightAware ADS-B
Sun 11:41:53 PM 30.2250 -94.4580 240° Southwest 338 389 12,700 -1,033 Descending FlightAware ADS-B
Sun 11:42:23 PM 30.2013 -94.5054 240° Southwest 335 386 11,900 -1,574 Descending FlightAware ADS-B
Sun 11:42:54 PM 30.1781 -94.5524 240° Southwest 331 381 11,100 -1,377 Descending FlightAware ADS-B
Sun 11:43:24 PM 30.1557 -94.5983 241° Southwest 321 369 10,500 -1,080 Descending FlightAware ADS-B
Sun 11:43:44 PM 30.1418 -94.6277 241° Southwest 309 356 10,200 -545 Descending FlightAware ADS-B
Sun 11:44:19 PM 30.1233 -94.6786 249° West 277 319 10,000 -500 Descending FlightAware ADS-B
Sun 11:44:32 PM 30.1176 -94.6967 250° West 275 316 9,800 -1,034 Descending FlightAware ADS-B
Sun 11:44:48 PM 30.1108 -94.7178 250° West 274 315 9,500 -1,082 Descending FlightAware ADS-B
Sun 11:45:33 PM 30.0911 -94.7798 250° West 269 310 8,700 -1,082 Descending FlightAware ADS-B
Sun 11:45:49 PM 30.0846 -94.8002 250° West 267 307 8,400 -1,161 Descending FlightAware ADS-B
Sun 11:46:04 PM 30.0782 -94.8205 250° West 266 306 8,100 -1,250 Descending FlightAware ADS-B
Sun 11:47:01 PM 30.0539 -94.8968 250° West 268 308 6,900 -1,241 Descending FlightAware ADS-B
Sun 11:48:00 PM 30.0309 -94.9688 250° West 218 251 5,700 -1,297 Descending FlightAware ADS-B
Sun 11:48:15 PM 30.0257 -94.9852 250° West 210 242 5,300 -1,826 Descending FlightAware ADS-B
Sun 11:48:46 PM 30.0156 -95.0169 250° West 207 238 4,300 -1,800 Descending FlightAware ADS-B
Sun 11:49:05 PM 30.0092 -95.0371 250° West 208 239 3,800 -1,371 Descending FlightAware ADS-B
Sun 11:49:21 PM 30.0038 -95.0536 249° West 206 237 3,500 -923 Descending FlightAware ADS-B
Sun 11:49:44 PM 29.9961 -95.0776 250° West 202 232 3,200 -632 Descending FlightAware ADS-B
Sun 11:49:59 PM 29.9914 -95.0925 250° West 192 221 3,100 -333 Descending FlightAware ADS-B
Sun 11:50:20 PM 29.9853 -95.1114 250° West 189 217 3,000 -222 Descending FlightAware ADS-B
Sun 11:50:26 PM 29.9835 -95.1176 251° West 190 219 3,000 -353 Level FlightAware ADS-B
Sun 11:50:37 PM 29.9811 -95.1281 256° West 190 219 2,900 -375 Descending FlightAware ADS-B
Sun 11:50:42 PM 29.9801 -95.1333 257° West 189 217 2,900 -400 Level FlightAware ADS-B
Sun 11:50:52 PM 29.9788 -95.1430 262° West 190 219 2,800 -923 Descending FlightAware ADS-B
Sun 11:50:55 PM 29.9784 -95.1461 262° West 192 221 2,700 -1,500 Descending FlightAware ADS-B
Sun 11:51:00 PM 29.9780 -95.1510 265° West 194 223 2,600 -1,636 Descending FlightAware ADS-B
Sun 11:51:06 PM 29.9777 -95.1574 267° West 197 227 2,400 -1,286 Descending FlightAware ADS-B
Sun 11:51:28 PM 29.9777 -95.1813 270° West 197 227 2,000 -977 Descending FlightAware ADS-B
Sun 11:51:49 PM 29.9776 -95.2029 270° West 195 224 1,700 -923 Descending FlightAware ADS-B
Sun 11:52:07 PM 29.9776 -95.2215 270° West 189 217 1,400 -1,059 Descending FlightAware ADS-B
Sun 11:52:23 PM 29.9776 -95.2366 270° West 178 205 1,100 -1,034 Descending FlightAware ADS-B
Sun 11:52:36 PM 29.9776 -95.2484 270° West 165 190 900 -857 Descending FlightAware ADS-B
Sun 11:52:51 PM 29.9776 -95.2611 270° West 149 171 700 -818 Descending FlightAware ADS-B
Sun 11:52:58 PM 29.9776 -95.2666 270° West 146 168 600 -750 Descending FlightAware ADS-B
Sun 11:53:07 PM 29.9777 -95.2732 271° West 143 165 500 -480 Descending FlightAware ADS-B
Sun 11:53:23 PM 29.9776 -95.2852 269° West 143 165 400 -545 Descending FlightAware ADS-B
Sun 11:53:40 PM 29.9776 -95.2985 270° West 143 165 200 -706 Descending FlightAware ADS-B

Login

Don't have an account? Register now (free) for customized features, flight alerts, and more!